Dallas, Pennsylvania
Current Conditions -  °F | °C
As of 5:06 AM on Monday 26 Jan 2015 (Local Time) from KAVP Reporting Station
Light Snow Light Snow  
Wind Chill:   Ceiling: 1600
Heat Index: 16°   Visibility: 1mi
Dew Point: 11°   Wind: 8mph
Humidity: 81%   Direction: 30°NNE
Pressure: 29.9"   Gusts: NA
Location:  41.33°N, 75.97°W
Report Text: KAVP 261006Z AUTO 03007KT 1SM R04/P6000FT -SN VV016 M09/M12 A2990 RMK AO2 P0000 T10891117
Loading
Personal Weather Stations






























Interactive Weather Map New forecast layout! Learn more

10-Day Weather Forecast

Advertisements
Track Severe Weather on mobile